sensor_id;sensor_type;location;lat;lon;timestamp;P1;durP1;ratioP1;P2;durP2;ratioP2
16248;SDS011;8232;51.678;6.610;2022-10-13T00:01:24;22.45;;;11.93;;
16248;SDS011;8232;51.678;6.610;2022-10-13T00:03:52;21.67;;;11.95;;
16248;SDS011;8232;51.678;6.610;2022-10-13T00:06:20;19.20;;;12.20;;
16248;SDS011;8232;51.678;6.610;2022-10-13T00:08:48;25.48;;;11.45;;
16248;SDS011;8232;51.678;6.610;2022-10-13T00:11:17;23.67;;;11.63;;
16248;SDS011;8232;51.678;6.610;2022-10-13T00:13:45;21.60;;;11.75;;
16248;SDS011;8232;51.678;6.610;2022-10-13T00:16:13;21.05;;;11.43;;
16248;SDS011;8232;51.678;6.610;2022-10-13T00:18:42;19.90;;;11.75;;
16248;SDS011;8232;51.678;6.610;2022-10-13T00:21:11;27.60;;;12.43;;
16248;SDS011;8232;51.678;6.610;2022-10-13T00:23:39;21.13;;;11.80;;
16248;SDS011;8232;51.678;6.610;2022-10-13T00:26:07;17.92;;;11.00;;
16248;SDS011;8232;51.678;6.610;2022-10-13T00:28:36;21.13;;;11.70;;
16248;SDS011;8232;51.678;6.610;2022-10-13T00:31:03;23.90;;;12.05;;
16248;SDS011;8232;51.678;6.610;2022-10-13T00:33:40;22.92;;;11.70;;
16248;SDS011;8232;51.678;6.610;2022-10-13T00:36:07;21.33;;;11.50;;
16248;SDS011;8232;51.678;6.610;2022-10-13T00:38:33;19.60;;;11.35;;
16248;SDS011;8232;51.678;6.610;2022-10-13T00:41:00;19.42;;;11.45;;
16248;SDS011;8232;51.678;6.610;2022-10-13T00:43:46;18.45;;;10.70;;
16248;SDS011;8232;51.678;6.610;2022-10-13T00:46:16;20.08;;;11.02;;
16248;SDS011;8232;51.678;6.610;2022-10-13T00:48:44;19.50;;;10.82;;
16248;SDS011;8232;51.678;6.610;2022-10-13T00:51:12;18.10;;;11.32;;
16248;SDS011;8232;51.678;6.610;2022-10-13T00:53:42;15.20;;;11.15;;
16248;SDS011;8232;51.678;6.610;2022-10-13T00:56:12;23.48;;;11.63;;
16248;SDS011;8232;51.678;6.610;2022-10-13T00:58:40;18.75;;;11.88;;
16248;SDS011;8232;51.678;6.610;2022-10-13T01:01:08;18.17;;;11.95;;
16248;SDS011;8232;51.678;6.610;2022-10-13T01:03:35;20.75;;;11.77;;
16248;SDS011;8232;51.678;6.610;2022-10-13T01:06:03;17.40;;;11.75;;
16248;SDS011;8232;51.678;6.610;2022-10-13T01:08:32;21.08;;;12.40;;
16248;SDS011;8232;51.678;6.610;2022-10-13T01:11:02;19.63;;;12.60;;
16248;SDS011;8232;51.678;6.610;2022-10-13T01:13:44;22.35;;;13.77;;
16248;SDS011;8232;51.678;6.610;2022-10-13T01:16:22;22.90;;;12.55;;
16248;SDS011;8232;51.678;6.610;2022-10-13T01:18:56;21.05;;;13.57;;
16248;SDS011;8232;51.678;6.610;2022-10-13T01:21:31;22.20;;;14.10;;
16248;SDS011;8232;51.678;6.610;2022-10-13T01:27:13;22.92;;;12.68;;
16248;SDS011;8232;51.678;6.610;2022-10-13T01:30:14;26.25;;;12.88;;
16248;SDS011;8232;51.678;6.610;2022-10-13T01:35:48;17.92;;;12.90;;
16248;SDS011;8232;51.678;6.610;2022-10-13T01:38:29;23.63;;;13.18;;
16248;SDS011;8232;51.678;6.610;2022-10-13T01:41:03;27.05;;;14.52;;
16248;SDS011;8232;51.678;6.610;2022-10-13T01:43:36;22.67;;;12.85;;
16248;SDS011;8232;51.678;6.610;2022-10-13T01:46:08;29.65;;;14.90;;
16248;SDS011;8232;51.678;6.610;2022-10-13T01:48:39;21.50;;;13.55;;
16248;SDS011;8232;51.678;6.610;2022-10-13T01:51:08;25.58;;;13.77;;
16248;SDS011;8232;51.678;6.610;2022-10-13T01:53:38;23.20;;;13.73;;
16248;SDS011;8232;51.678;6.610;2022-10-13T01:56:06;18.88;;;14.20;;
16248;SDS011;8232;51.678;6.610;2022-10-13T01:58:33;23.48;;;14.98;;
16248;SDS011;8232;51.678;6.610;2022-10-13T02:01:04;19.98;;;13.82;;
16248;SDS011;8232;51.678;6.610;2022-10-13T02:03:42;23.98;;;13.95;;
16248;SDS011;8232;51.678;6.610;2022-10-13T02:06:18;20.58;;;13.85;;
16248;SDS011;8232;51.678;6.610;2022-10-13T02:08:50;24.60;;;13.82;;
16248;SDS011;8232;51.678;6.610;2022-10-13T02:11:24;20.25;;;13.48;;
16248;SDS011;8232;51.678;6.610;2022-10-13T02:14:01;18.50;;;13.52;;
16248;SDS011;8232;51.678;6.610;2022-10-13T02:16:34;18.70;;;12.93;;
16248;SDS011;8232;51.678;6.610;2022-10-13T02:19:04;19.27;;;12.85;;
16248;SDS011;8232;51.678;6.610;2022-10-13T02:21:33;24.48;;;13.13;;
16248;SDS011;8232;51.678;6.610;2022-10-13T02:24:01;18.67;;;12.65;;
16248;SDS011;8232;51.678;6.610;2022-10-13T02:26:29;18.10;;;12.75;;
16248;SDS011;8232;51.678;6.610;2022-10-13T02:28:57;21.08;;;13.07;;
16248;SDS011;8232;51.678;6.610;2022-10-13T02:31:24;26.23;;;13.60;;
16248;SDS011;8232;51.678;6.610;2022-10-13T02:33:52;21.42;;;12.57;;
16248;SDS011;8232;51.678;6.610;2022-10-13T02:36:19;25.70;;;11.93;;
16248;SDS011;8232;51.678;6.610;2022-10-13T02:38:45;25.00;;;13.38;;
16248;SDS011;8232;51.678;6.610;2022-10-13T02:41:12;19.38;;;12.52;;
16248;SDS011;8232;51.678;6.610;2022-10-13T02:43:39;18.40;;;13.13;;
16248;SDS011;8232;51.678;6.610;2022-10-13T02:46:06;23.73;;;13.25;;
16248;SDS011;8232;51.678;6.610;2022-10-13T02:48:32;19.17;;;12.18;;
16248;SDS011;8232;51.678;6.610;2022-10-13T02:51:01;23.25;;;12.57;;
16248;SDS011;8232;51.678;6.610;2022-10-13T02:53:27;25.95;;;12.60;;
16248;SDS011;8232;51.678;6.610;2022-10-13T02:55:54;18.48;;;12.73;;
16248;SDS011;8232;51.678;6.610;2022-10-13T02:58:21;19.25;;;13.20;;
16248;SDS011;8232;51.678;6.610;2022-10-13T03:00:48;21.73;;;11.88;;
16248;SDS011;8232;51.678;6.610;2022-10-13T03:03:14;26.38;;;13.15;;
16248;SDS011;8232;51.678;6.610;2022-10-13T03:05:41;19.30;;;12.15;;
16248;SDS011;8232;51.678;6.610;2022-10-13T03:08:10;22.80;;;12.18;;
16248;SDS011;8232;51.678;6.610;2022-10-13T03:10:37;22.10;;;12.43;;
16248;SDS011;8232;51.678;6.610;2022-10-13T03:13:04;20.27;;;12.27;;
16248;SDS011;8232;51.678;6.610;2022-10-13T03:15:30;18.38;;;12.55;;
16248;SDS011;8232;51.678;6.610;2022-10-13T03:17:57;20.33;;;11.98;;
16248;SDS011;8232;51.678;6.610;2022-10-13T03:20:24;23.05;;;12.23;;
16248;SDS011;8232;51.678;6.610;2022-10-13T03:22:51;21.27;;;12.88;;
16248;SDS011;8232;51.678;6.610;2022-10-13T03:25:19;18.88;;;12.52;;
16248;SDS011;8232;51.678;6.610;2022-10-13T03:27:46;20.65;;;12.80;;
16248;SDS011;8232;51.678;6.610;2022-10-13T03:30:12;17.52;;;12.20;;
16248;SDS011;8232;51.678;6.610;2022-10-13T03:32:39;23.40;;;13.25;;
16248;SDS011;8232;51.678;6.610;2022-10-13T03:35:06;21.77;;;12.60;;
16248;SDS011;8232;51.678;6.610;2022-10-13T03:37:33;19.58;;;13.07;;
16248;SDS011;8232;51.678;6.610;2022-10-13T03:40:00;17.42;;;12.40;;
16248;SDS011;8232;51.678;6.610;2022-10-13T03:42:29;25.45;;;12.63;;
16248;SDS011;8232;51.678;6.610;2022-10-13T03:44:55;21.05;;;12.35;;
16248;SDS011;8232;51.678;6.610;2022-10-13T03:47:22;20.65;;;13.23;;
16248;SDS011;8232;51.678;6.610;2022-10-13T03:49:49;16.48;;;11.85;;
16248;SDS011;8232;51.678;6.610;2022-10-13T03:52:19;17.88;;;11.75;;
16248;SDS011;8232;51.678;6.610;2022-10-13T03:54:46;19.95;;;11.70;;
16248;SDS011;8232;51.678;6.610;2022-10-13T03:57:12;22.13;;;12.95;;
16248;SDS011;8232;51.678;6.610;2022-10-13T03:59:41;16.58;;;12.60;;
16248;SDS011;8232;51.678;6.610;2022-10-13T04:02:07;18.17;;;12.73;;
16248;SDS011;8232;51.678;6.610;2022-10-13T04:04:35;25.83;;;13.10;;
16248;SDS011;8232;51.678;6.610;2022-10-13T04:07:03;25.77;;;12.88;;
16248;SDS011;8232;51.678;6.610;2022-10-13T04:09:31;19.50;;;12.45;;
16248;SDS011;8232;51.678;6.610;2022-10-13T04:11:58;20.15;;;12.20;;
16248;SDS011;8232;51.678;6.610;2022-10-13T04:14:25;21.05;;;13.35;;
16248;SDS011;8232;51.678;6.610;2022-10-13T04:16:53;16.90;;;12.23;;
16248;SDS011;8232;51.678;6.610;2022-10-13T04:19:20;18.33;;;12.93;;
16248;SDS011;8232;51.678;6.610;2022-10-13T04:21:47;25.83;;;12.88;;
16248;SDS011;8232;51.678;6.610;2022-10-13T04:24:14;23.42;;;13.10;;
16248;SDS011;8232;51.678;6.610;2022-10-13T04:26:43;19.23;;;12.30;;
16248;SDS011;8232;51.678;6.610;2022-10-13T04:29:11;20.50;;;12.90;;
16248;SDS011;8232;51.678;6.610;2022-10-13T04:31:38;18.52;;;13.38;;
16248;SDS011;8232;51.678;6.610;2022-10-13T04:34:08;22.63;;;13.15;;
16248;SDS011;8232;51.678;6.610;2022-10-13T04:36:34;20.35;;;13.50;;
16248;SDS011;8232;51.678;6.610;2022-10-13T04:39:02;25.67;;;13.40;;
16248;SDS011;8232;51.678;6.610;2022-10-13T04:41:29;22.08;;;12.82;;
16248;SDS011;8232;51.678;6.610;2022-10-13T04:43:56;24.60;;;14.45;;
16248;SDS011;8232;51.678;6.610;2022-10-13T04:46:23;20.05;;;12.55;;
16248;SDS011;8232;51.678;6.610;2022-10-13T04:48:51;19.63;;;13.00;;
16248;SDS011;8232;51.678;6.610;2022-10-13T04:51:20;21.58;;;12.63;;
16248;SDS011;8232;51.678;6.610;2022-10-13T04:53:52;26.63;;;13.02;;
16248;SDS011;8232;51.678;6.610;2022-10-13T04:56:19;23.42;;;13.10;;
16248;SDS011;8232;51.678;6.610;2022-10-13T04:58:46;21.65;;;12.90;;
16248;SDS011;8232;51.678;6.610;2022-10-13T05:01:14;26.63;;;12.95;;
16248;SDS011;8232;51.678;6.610;2022-10-13T05:03:43;22.33;;;14.10;;
16248;SDS011;8232;51.678;6.610;2022-10-13T05:06:14;17.90;;;12.60;;
16248;SDS011;8232;51.678;6.610;2022-10-13T05:08:42;19.67;;;12.00;;
16248;SDS011;8232;51.678;6.610;2022-10-13T05:11:09;20.80;;;13.90;;
16248;SDS011;8232;51.678;6.610;2022-10-13T05:13:36;16.88;;;12.15;;
16248;SDS011;8232;51.678;6.610;2022-10-13T05:16:06;21.65;;;12.63;;
16248;SDS011;8232;51.678;6.610;2022-10-13T05:18:34;23.83;;;12.60;;
16248;SDS011;8232;51.678;6.610;2022-10-13T05:21:08;19.45;;;12.93;;
16248;SDS011;8232;51.678;6.610;2022-10-13T05:23:35;23.55;;;13.52;;
16248;SDS011;8232;51.678;6.610;2022-10-13T05:26:05;17.95;;;12.82;;
16248;SDS011;8232;51.678;6.610;2022-10-13T05:28:33;20.95;;;13.15;;
16248;SDS011;8232;51.678;6.610;2022-10-13T05:31:07;17.40;;;12.48;;
16248;SDS011;8232;51.678;6.610;2022-10-13T05:33:35;22.85;;;13.57;;
16248;SDS011;8232;51.678;6.610;2022-10-13T05:36:06;24.20;;;13.40;;
16248;SDS011;8232;51.678;6.610;2022-10-13T05:38:34;26.35;;;14.05;;
16248;SDS011;8232;51.678;6.610;2022-10-13T05:41:01;20.65;;;13.38;;
16248;SDS011;8232;51.678;6.610;2022-10-13T05:43:31;18.23;;;13.60;;
16248;SDS011;8232;51.678;6.610;2022-10-13T05:45:58;17.40;;;12.50;;
16248;SDS011;8232;51.678;6.610;2022-10-13T05:48:26;23.65;;;13.60;;
16248;SDS011;8232;51.678;6.610;2022-10-13T05:50:53;15.90;;;11.73;;
16248;SDS011;8232;51.678;6.610;2022-10-13T05:53:22;20.23;;;12.95;;
16248;SDS011;8232;51.678;6.610;2022-10-13T05:55:50;22.42;;;13.68;;
16248;SDS011;8232;51.678;6.610;2022-10-13T05:58:20;20.48;;;13.70;;
16248;SDS011;8232;51.678;6.610;2022-10-13T06:00:47;23.90;;;12.82;;
16248;SDS011;8232;51.678;6.610;2022-10-13T06:03:15;21.05;;;14.02;;
16248;SDS011;8232;51.678;6.610;2022-10-13T06:05:46;20.58;;;12.60;;
16248;SDS011;8232;51.678;6.610;2022-10-13T06:08:13;21.58;;;13.43;;
16248;SDS011;8232;51.678;6.610;2022-10-13T06:10:40;22.45;;;13.32;;
16248;SDS011;8232;51.678;6.610;2022-10-13T06:13:07;19.63;;;13.65;;
16248;SDS011;8232;51.678;6.610;2022-10-13T06:15:36;23.63;;;13.82;;
16248;SDS011;8232;51.678;6.610;2022-10-13T06:18:05;23.90;;;13.57;;
16248;SDS011;8232;51.678;6.610;2022-10-13T06:20:33;20.20;;;13.18;;
16248;SDS011;8232;51.678;6.610;2022-10-13T06:23:00;20.35;;;13.13;;
16248;SDS011;8232;51.678;6.610;2022-10-13T06:25:27;20.25;;;13.70;;
16248;SDS011;8232;51.678;6.610;2022-10-13T06:27:54;20.08;;;13.00;;
16248;SDS011;8232;51.678;6.610;2022-10-13T06:30:21;19.10;;;13.10;;
16248;SDS011;8232;51.678;6.610;2022-10-13T06:32:49;25.63;;;13.68;;
16248;SDS011;8232;51.678;6.610;2022-10-13T06:35:18;19.38;;;13.25;;
16248;SDS011;8232;51.678;6.610;2022-10-13T06:37:44;20.63;;;14.38;;
16248;SDS011;8232;51.678;6.610;2022-10-13T06:40:12;18.73;;;11.77;;
16248;SDS011;8232;51.678;6.610;2022-10-13T06:42:39;23.35;;;13.30;;
16248;SDS011;8232;51.678;6.610;2022-10-13T06:45:06;20.08;;;12.82;;
16248;SDS011;8232;51.678;6.610;2022-10-13T06:47:34;19.17;;;12.75;;
16248;SDS011;8232;51.678;6.610;2022-10-13T06:50:02;22.20;;;12.70;;
16248;SDS011;8232;51.678;6.610;2022-10-13T06:52:29;17.35;;;12.35;;
16248;SDS011;8232;51.678;6.610;2022-10-13T06:54:56;19.45;;;11.93;;
16248;SDS011;8232;51.678;6.610;2022-10-13T06:57:23;24.90;;;12.85;;
16248;SDS011;8232;51.678;6.610;2022-10-13T06:59:49;18.52;;;12.02;;
16248;SDS011;8232;51.678;6.610;2022-10-13T07:02:17;18.58;;;12.75;;
16248;SDS011;8232;51.678;6.610;2022-10-13T07:04:45;21.42;;;12.65;;
16248;SDS011;8232;51.678;6.610;2022-10-13T07:07:13;19.65;;;12.73;;
16248;SDS011;8232;51.678;6.610;2022-10-13T07:09:40;17.83;;;11.55;;
16248;SDS011;8232;51.678;6.610;2022-10-13T07:12:07;20.73;;;12.45;;
16248;SDS011;8232;51.678;6.610;2022-10-13T07:14:34;18.15;;;12.15;;
16248;SDS011;8232;51.678;6.610;2022-10-13T07:17:01;19.65;;;12.27;;
16248;SDS011;8232;51.678;6.610;2022-10-13T07:19:28;21.35;;;12.50;;
16248;SDS011;8232;51.678;6.610;2022-10-13T07:21:55;23.30;;;12.95;;
16248;SDS011;8232;51.678;6.610;2022-10-13T07:24:23;24.75;;;12.18;;
16248;SDS011;8232;51.678;6.610;2022-10-13T07:26:50;19.30;;;11.68;;
16248;SDS011;8232;51.678;6.610;2022-10-13T07:29:17;22.92;;;11.90;;
16248;SDS011;8232;51.678;6.610;2022-10-13T07:31:44;18.63;;;11.98;;
16248;SDS011;8232;51.678;6.610;2022-10-13T07:34:11;20.10;;;12.45;;
16248;SDS011;8232;51.678;6.610;2022-10-13T07:36:39;23.42;;;12.50;;
16248;SDS011;8232;51.678;6.610;2022-10-13T07:39:06;18.00;;;12.10;;
16248;SDS011;8232;51.678;6.610;2022-10-13T07:41:34;22.40;;;12.60;;
16248;SDS011;8232;51.678;6.610;2022-10-13T07:44:02;20.75;;;13.75;;
16248;SDS011;8232;51.678;6.610;2022-10-13T07:46:29;23.02;;;12.90;;
16248;SDS011;8232;51.678;6.610;2022-10-13T07:48:56;20.15;;;12.50;;
16248;SDS011;8232;51.678;6.610;2022-10-13T07:51:22;18.00;;;12.43;;
16248;SDS011;8232;51.678;6.610;2022-10-13T07:53:49;24.20;;;12.73;;
16248;SDS011;8232;51.678;6.610;2022-10-13T07:56:16;17.80;;;12.70;;
16248;SDS011;8232;51.678;6.610;2022-10-13T07:58:45;20.50;;;12.55;;
16248;SDS011;8232;51.678;6.610;2022-10-13T08:01:13;19.63;;;12.10;;
16248;SDS011;8232;51.678;6.610;2022-10-13T08:03:41;24.30;;;13.25;;
16248;SDS011;8232;51.678;6.610;2022-10-13T08:06:08;18.00;;;12.70;;
16248;SDS011;8232;51.678;6.610;2022-10-13T08:08:36;21.35;;;13.60;;
16248;SDS011;8232;51.678;6.610;2022-10-13T08:11:05;20.83;;;13.60;;
16248;SDS011;8232;51.678;6.610;2022-10-13T08:13:33;17.10;;;12.60;;
16248;SDS011;8232;51.678;6.610;2022-10-13T08:16:02;21.63;;;13.27;;
16248;SDS011;8232;51.678;6.610;2022-10-13T08:18:29;22.58;;;12.85;;
16248;SDS011;8232;51.678;6.610;2022-10-13T08:20:58;22.55;;;13.45;;
16248;SDS011;8232;51.678;6.610;2022-10-13T08:23:27;23.20;;;12.73;;
16248;SDS011;8232;51.678;6.610;2022-10-13T08:25:54;22.20;;;13.48;;
16248;SDS011;8232;51.678;6.610;2022-10-13T08:28:22;24.27;;;12.85;;
16248;SDS011;8232;51.678;6.610;2022-10-13T08:30:51;19.35;;;13.27;;
16248;SDS011;8232;51.678;6.610;2022-10-13T08:33:20;17.10;;;13.23;;
16248;SDS011;8232;51.678;6.610;2022-10-13T08:35:47;21.27;;;13.65;;
16248;SDS011;8232;51.678;6.610;2022-10-13T08:38:14;18.27;;;13.45;;
16248;SDS011;8232;51.678;6.610;2022-10-13T08:40:44;21.25;;;13.02;;
16248;SDS011;8232;51.678;6.610;2022-10-13T08:43:11;18.85;;;13.45;;
16248;SDS011;8232;51.678;6.610;2022-10-13T08:45:42;21.67;;;13.45;;
16248;SDS011;8232;51.678;6.610;2022-10-13T08:48:10;20.38;;;13.13;;
16248;SDS011;8232;51.678;6.610;2022-10-13T08:50:43;27.50;;;13.77;;
16248;SDS011;8232;51.678;6.610;2022-10-13T08:53:13;23.70;;;13.45;;
16248;SDS011;8232;51.678;6.610;2022-10-13T08:55:48;21.10;;;13.30;;
16248;SDS011;8232;51.678;6.610;2022-10-13T08:58:18;20.08;;;13.10;;
16248;SDS011;8232;51.678;6.610;2022-10-13T09:00:46;25.95;;;13.27;;
16248;SDS011;8232;51.678;6.610;2022-10-13T09:03:21;20.10;;;13.27;;
16248;SDS011;8232;51.678;6.610;2022-10-13T09:05:55;20.35;;;14.25;;
16248;SDS011;8232;51.678;6.610;2022-10-13T09:08:29;21.10;;;13.70;;
16248;SDS011;8232;51.678;6.610;2022-10-13T09:11:03;21.83;;;14.07;;
16248;SDS011;8232;51.678;6.610;2022-10-13T09:13:30;26.30;;;14.32;;
16248;SDS011;8232;51.678;6.610;2022-10-13T09:15:57;19.60;;;13.02;;
16248;SDS011;8232;51.678;6.610;2022-10-13T09:18:26;20.17;;;13.27;;
16248;SDS011;8232;51.678;6.610;2022-10-13T09:21:06;16.63;;;12.45;;
16248;SDS011;8232;51.678;6.610;2022-10-13T09:23:41;22.40;;;13.27;;
16248;SDS011;8232;51.678;6.610;2022-10-13T09:26:08;18.85;;;12.30;;
16248;SDS011;8232;51.678;6.610;2022-10-13T09:28:43;19.33;;;13.93;;
16248;SDS011;8232;51.678;6.610;2022-10-13T09:31:13;24.80;;;13.68;;
16248;SDS011;8232;51.678;6.610;2022-10-13T09:33:42;18.75;;;12.98;;
16248;SDS011;8232;51.678;6.610;2022-10-13T09:36:11;22.00;;;13.02;;
16248;SDS011;8232;51.678;6.610;2022-10-13T09:38:40;16.25;;;12.45;;
16248;SDS011;8232;51.678;6.610;2022-10-13T09:41:13;20.13;;;12.07;;
16248;SDS011;8232;51.678;6.610;2022-10-13T09:43:56;23.75;;;11.48;;
16248;SDS011;8232;51.678;6.610;2022-10-13T09:46:25;18.88;;;11.65;;
16248;SDS011;8232;51.678;6.610;2022-10-13T09:48:55;17.30;;;11.38;;
16248;SDS011;8232;51.678;6.610;2022-10-13T09:51:31;15.50;;;11.05;;
16248;SDS011;8232;51.678;6.610;2022-10-13T09:54:02;16.23;;;11.18;;
16248;SDS011;8232;51.678;6.610;2022-10-13T09:56:32;16.50;;;11.02;;
16248;SDS011;8232;51.678;6.610;2022-10-13T09:59:06;16.42;;;11.38;;
16248;SDS011;8232;51.678;6.610;2022-10-13T10:01:39;16.42;;;10.98;;
16248;SDS011;8232;51.678;6.610;2022-10-13T10:04:10;16.85;;;11.43;;
16248;SDS011;8232;51.678;6.610;2022-10-13T10:06:41;16.70;;;11.20;;
16248;SDS011;8232;51.678;6.610;2022-10-13T10:09:15;18.85;;;11.95;;
16248;SDS011;8232;51.678;6.610;2022-10-13T10:12:02;17.05;;;11.77;;
16248;SDS011;8232;51.678;6.610;2022-10-13T10:14:30;17.95;;;11.38;;
16248;SDS011;8232;51.678;6.610;2022-10-13T10:17:00;15.25;;;11.10;;
16248;SDS011;8232;51.678;6.610;2022-10-13T10:19:37;19.63;;;11.07;;
16248;SDS011;8232;51.678;6.610;2022-10-13T10:22:14;19.13;;;11.90;;
16248;SDS011;8232;51.678;6.610;2022-10-13T10:24:51;14.40;;;9.75;;
16248;SDS011;8232;51.678;6.610;2022-10-13T10:27:25;17.35;;;10.10;;
16248;SDS011;8232;51.678;6.610;2022-10-13T10:29:58;19.42;;;10.45;;
16248;SDS011;8232;51.678;6.610;2022-10-13T10:32:32;16.92;;;10.40;;
16248;SDS011;8232;51.678;6.610;2022-10-13T10:35:10;13.73;;;10.15;;
16248;SDS011;8232;51.678;6.610;2022-10-13T10:37:45;13.10;;;9.85;;
16248;SDS011;8232;51.678;6.610;2022-10-13T10:40:25;16.95;;;10.30;;
16248;SDS011;8232;51.678;6.610;2022-10-13T10:43:12;13.70;;;9.95;;
16248;SDS011;8232;51.678;6.610;2022-10-13T10:45:56;17.88;;;11.02;;
16248;SDS011;8232;51.678;6.610;2022-10-13T10:48:25;11.35;;;9.23;;
16248;SDS011;8232;51.678;6.610;2022-10-13T10:50:56;17.48;;;9.80;;
16248;SDS011;8232;51.678;6.610;2022-10-13T10:53:28;19.25;;;10.38;;
16248;SDS011;8232;51.678;6.610;2022-10-13T10:56:00;15.25;;;9.15;;
16248;SDS011;8232;51.678;6.610;2022-10-13T10:58:36;19.63;;;11.13;;
16248;SDS011;8232;51.678;6.610;2022-10-13T11:01:14;17.13;;;10.40;;
16248;SDS011;8232;51.678;6.610;2022-10-13T11:03:53;15.70;;;10.30;;
16248;SDS011;8232;51.678;6.610;2022-10-13T11:06:24;15.30;;;11.00;;
16248;SDS011;8232;51.678;6.610;2022-10-13T11:09:00;20.20;;;10.95;;
16248;SDS011;8232;51.678;6.610;2022-10-13T11:11:28;19.08;;;11.43;;
16248;SDS011;8232;51.678;6.610;2022-10-13T11:17:08;16.60;;;10.30;;
16248;SDS011;8232;51.678;6.610;2022-10-13T11:19:41;19.30;;;10.68;;
16248;SDS011;8232;51.678;6.610;2022-10-13T11:22:12;15.50;;;9.98;;
16248;SDS011;8232;51.678;6.610;2022-10-13T11:27:38;12.73;;;9.88;;
16248;SDS011;8232;51.678;6.610;2022-10-13T11:36:36;16.92;;;8.88;;
16248;SDS011;8232;51.678;6.610;2022-10-13T11:39:27;12.52;;;8.60;;
16248;SDS011;8232;51.678;6.610;2022-10-13T11:42:20;16.98;;;8.98;;
16248;SDS011;8232;51.678;6.610;2022-10-13T11:45:03;16.00;;;9.23;;
16248;SDS011;8232;51.678;6.610;2022-10-13T11:50:36;16.60;;;9.00;;
16248;SDS011;8232;51.678;6.610;2022-10-13T11:53:18;12.70;;;9.40;;
16248;SDS011;8232;51.678;6.610;2022-10-13T11:55:48;13.27;;;9.02;;
16248;SDS011;8232;51.678;6.610;2022-10-13T11:58:18;13.57;;;8.50;;
16248;SDS011;8232;51.678;6.610;2022-10-13T12:00:53;16.05;;;8.60;;
16248;SDS011;8232;51.678;6.610;2022-10-13T12:03:23;13.63;;;8.88;;
16248;SDS011;8232;51.678;6.610;2022-10-13T12:05:52;17.92;;;7.85;;
16248;SDS011;8232;51.678;6.610;2022-10-13T12:08:22;10.73;;;8.32;;
16248;SDS011;8232;51.678;6.610;2022-10-13T12:10:52;14.45;;;7.43;;
16248;SDS011;8232;51.678;6.610;2022-10-13T12:13:24;10.80;;;7.90;;
16248;SDS011;8232;51.678;6.610;2022-10-13T12:15:56;11.05;;;7.45;;
16248;SDS011;8232;51.678;6.610;2022-10-13T12:18:27;16.25;;;8.43;;
16248;SDS011;8232;51.678;6.610;2022-10-13T12:20:58;11.68;;;7.60;;
16248;SDS011;8232;51.678;6.610;2022-10-13T12:23:28;13.13;;;7.82;;
16248;SDS011;8232;51.678;6.610;2022-10-13T12:25:56;11.05;;;7.38;;
16248;SDS011;8232;51.678;6.610;2022-10-13T12:28:26;15.88;;;7.70;;
16248;SDS011;8232;51.678;6.610;2022-10-13T12:30:55;15.40;;;8.15;;
16248;SDS011;8232;51.678;6.610;2022-10-13T12:33:26;10.25;;;7.70;;
16248;SDS011;8232;51.678;6.610;2022-10-13T12:35:55;15.00;;;7.30;;
16248;SDS011;8232;51.678;6.610;2022-10-13T12:38:37;12.20;;;7.72;;
16248;SDS011;8232;51.678;6.610;2022-10-13T12:41:07;12.63;;;7.30;;
16248;SDS011;8232;51.678;6.610;2022-10-13T12:43:37;14.07;;;7.93;;
16248;SDS011;8232;51.678;6.610;2022-10-13T12:46:04;15.05;;;7.88;;
16248;SDS011;8232;51.678;6.610;2022-10-13T12:48:33;12.88;;;8.02;;
16248;SDS011;8232;51.678;6.610;2022-10-13T12:51:06;11.20;;;8.13;;
16248;SDS011;8232;51.678;6.610;2022-10-13T12:53:51;14.07;;;9.00;;
16248;SDS011;8232;51.678;6.610;2022-10-13T12:56:21;14.88;;;9.18;;
16248;SDS011;8232;51.678;6.610;2022-10-13T12:58:54;12.30;;;8.60;;
16248;SDS011;8232;51.678;6.610;2022-10-13T13:01:26;13.52;;;7.88;;
16248;SDS011;8232;51.678;6.610;2022-10-13T13:03:56;16.55;;;8.60;;
16248;SDS011;8232;51.678;6.610;2022-10-13T13:06:32;14.82;;;8.80;;
16248;SDS011;8232;51.678;6.610;2022-10-13T13:11:46;13.65;;;8.32;;
16248;SDS011;8232;51.678;6.610;2022-10-13T13:14:22;17.38;;;8.68;;
16248;SDS011;8232;51.678;6.610;2022-10-13T13:17:04;14.38;;;7.88;;
16248;SDS011;8232;51.678;6.610;2022-10-13T13:19:33;8.90;;;7.15;;
16248;SDS011;8232;51.678;6.610;2022-10-13T13:22:01;9.07;;;7.30;;
16248;SDS011;8232;51.678;6.610;2022-10-13T13:24:29;16.23;;;8.45;;
16248;SDS011;8232;51.678;6.610;2022-10-13T13:26:56;11.38;;;8.35;;
16248;SDS011;8232;51.678;6.610;2022-10-13T13:29:24;14.25;;;7.68;;
16248;SDS011;8232;51.678;6.610;2022-10-13T13:31:51;12.07;;;7.70;;
16248;SDS011;8232;51.678;6.610;2022-10-13T13:34:18;13.15;;;8.05;;
16248;SDS011;8232;51.678;6.610;2022-10-13T13:36:45;14.68;;;7.80;;
16248;SDS011;8232;51.678;6.610;2022-10-13T13:39:14;13.70;;;8.32;;
16248;SDS011;8232;51.678;6.610;2022-10-13T13:41:42;11.00;;;7.95;;
16248;SDS011;8232;51.678;6.610;2022-10-13T13:44:09;9.82;;;7.93;;
16248;SDS011;8232;51.678;6.610;2022-10-13T13:46:37;13.60;;;8.05;;
16248;SDS011;8232;51.678;6.610;2022-10-13T13:49:06;13.43;;;8.25;;
16248;SDS011;8232;51.678;6.610;2022-10-13T13:51:34;13.00;;;8.05;;
16248;SDS011;8232;51.678;6.610;2022-10-13T13:54:00;10.95;;;7.47;;
16248;SDS011;8232;51.678;6.610;2022-10-13T13:56:27;13.90;;;8.25;;
16248;SDS011;8232;51.678;6.610;2022-10-13T13:58:54;14.38;;;8.70;;
16248;SDS011;8232;51.678;6.610;2022-10-13T14:01:21;14.20;;;8.43;;
16248;SDS011;8232;51.678;6.610;2022-10-13T14:03:50;14.90;;;8.50;;
16248;SDS011;8232;51.678;6.610;2022-10-13T14:06:17;15.82;;;9.23;;
16248;SDS011;8232;51.678;6.610;2022-10-13T14:08:45;13.48;;;9.50;;
16248;SDS011;8232;51.678;6.610;2022-10-13T14:11:12;13.00;;;9.30;;
16248;SDS011;8232;51.678;6.610;2022-10-13T14:13:39;12.40;;;9.10;;
16248;SDS011;8232;51.678;6.610;2022-10-13T14:16:06;16.85;;;9.93;;
16248;SDS011;8232;51.678;6.610;2022-10-13T14:18:37;10.65;;;8.88;;
16248;SDS011;8232;51.678;6.610;2022-10-13T14:21:06;17.60;;;9.68;;
16248;SDS011;8232;51.678;6.610;2022-10-13T14:23:34;12.35;;;9.95;;
16248;SDS011;8232;51.678;6.610;2022-10-13T14:26:03;21.33;;;10.95;;
16248;SDS011;8232;51.678;6.610;2022-10-13T14:28:31;15.88;;;9.95;;
16248;SDS011;8232;51.678;6.610;2022-10-13T14:30:58;15.20;;;10.02;;
16248;SDS011;8232;51.678;6.610;2022-10-13T14:33:25;12.40;;;9.90;;
16248;SDS011;8232;51.678;6.610;2022-10-13T14:35:57;13.00;;;10.23;;
16248;SDS011;8232;51.678;6.610;2022-10-13T14:38:26;19.35;;;10.48;;
16248;SDS011;8232;51.678;6.610;2022-10-13T14:40:56;16.58;;;10.63;;
16248;SDS011;8232;51.678;6.610;2022-10-13T14:43:24;15.05;;;10.55;;
16248;SDS011;8232;51.678;6.610;2022-10-13T14:45:51;16.60;;;11.40;;
16248;SDS011;8232;51.678;6.610;2022-10-13T14:48:18;13.68;;;9.85;;
16248;SDS011;8232;51.678;6.610;2022-10-13T14:50:45;17.55;;;11.10;;
16248;SDS011;8232;51.678;6.610;2022-10-13T14:53:12;17.13;;;11.35;;
16248;SDS011;8232;51.678;6.610;2022-10-13T14:55:41;16.85;;;10.77;;
16248;SDS011;8232;51.678;6.610;2022-10-13T14:58:08;18.98;;;11.55;;
16248;SDS011;8232;51.678;6.610;2022-10-13T15:00:35;18.02;;;11.52;;
16248;SDS011;8232;51.678;6.610;2022-10-13T15:03:02;16.77;;;11.50;;
16248;SDS011;8232;51.678;6.610;2022-10-13T15:05:29;16.67;;;11.02;;
16248;SDS011;8232;51.678;6.610;2022-10-13T15:07:56;15.50;;;10.90;;
16248;SDS011;8232;51.678;6.610;2022-10-13T15:10:23;14.93;;;11.30;;
16248;SDS011;8232;51.678;6.610;2022-10-13T15:12:51;16.58;;;11.32;;
16248;SDS011;8232;51.678;6.610;2022-10-13T15:15:18;13.73;;;10.88;;
16248;SDS011;8232;51.678;6.610;2022-10-13T15:17:45;16.67;;;11.60;;